sensor_id;sensor_type;location;lat;lon;timestamp;P1;durP1;ratioP1;P2;durP2;ratioP2
45007;SDS011;30743;52.008;5.644;2022-08-11T00:02:35;2.28;;;1.30;;
45007;SDS011;30743;52.008;5.644;2022-08-11T00:05:05;2.38;;;1.35;;
45007;SDS011;30743;52.008;5.644;2022-08-11T00:09:58;7.60;;;1.50;;
45007;SDS011;30743;52.008;5.644;2022-08-11T00:12:25;7.90;;;1.67;;
45007;SDS011;30743;52.008;5.644;2022-08-11T00:14:55;5.88;;;1.33;;
45007;SDS011;30743;52.008;5.644;2022-08-11T00:17:25;2.90;;;1.30;;
45007;SDS011;30743;52.008;5.644;2022-08-11T00:19:53;4.80;;;1.48;;
45007;SDS011;30743;52.008;5.644;2022-08-11T00:22:26;6.78;;;1.60;;
45007;SDS011;30743;52.008;5.644;2022-08-11T00:24:53;3.40;;;1.70;;
45007;SDS011;30743;52.008;5.644;2022-08-11T00:27:20;2.30;;;1.48;;
45007;SDS011;30743;52.008;5.644;2022-08-11T00:29:55;3.10;;;1.30;;
45007;SDS011;30743;52.008;5.644;2022-08-11T00:32:22;4.90;;;1.38;;
45007;SDS011;30743;52.008;5.644;2022-08-11T00:34:47;4.82;;;1.40;;
45007;SDS011;30743;52.008;5.644;2022-08-11T00:37:20;3.45;;;1.25;;
45007;SDS011;30743;52.008;5.644;2022-08-11T00:39:50;4.53;;;1.30;;
45007;SDS011;30743;52.008;5.644;2022-08-11T00:45:13;3.42;;;1.60;;
45007;SDS011;30743;52.008;5.644;2022-08-11T00:47:54;4.45;;;1.50;;
45007;SDS011;30743;52.008;5.644;2022-08-11T01:01:57;4.45;;;1.50;;
45007;SDS011;30743;52.008;5.644;2022-08-11T01:13:13;4.57;;;1.30;;
45007;SDS011;30743;52.008;5.644;2022-08-11T01:16:03;2.22;;;1.33;;
45007;SDS011;30743;52.008;5.644;2022-08-11T01:18:51;2.78;;;1.73;;
45007;SDS011;30743;52.008;5.644;2022-08-11T01:33:32;3.25;;;1.30;;
45007;SDS011;30743;52.008;5.644;2022-08-11T01:46:11;2.25;;;1.40;;
45007;SDS011;30743;52.008;5.644;2022-08-11T01:59:07;2.33;;;1.40;;
45007;SDS011;30743;52.008;5.644;2022-08-11T02:04:38;2.75;;;1.40;;
45007;SDS011;30743;52.008;5.644;2022-08-11T02:18:41;5.10;;;2.10;;
45007;SDS011;30743;52.008;5.644;2022-08-11T02:21:45;3.17;;;1.40;;
45007;SDS011;30743;52.008;5.644;2022-08-11T02:25:07;4.68;;;1.60;;
45007;SDS011;30743;52.008;5.644;2022-08-11T02:27:49;2.88;;;1.50;;
45007;SDS011;30743;52.008;5.644;2022-08-11T02:30:23;3.50;;;1.50;;
45007;SDS011;30743;52.008;5.644;2022-08-11T02:44:24;2.42;;;1.70;;
45007;SDS011;30743;52.008;5.644;2022-08-11T02:47:08;2.35;;;1.83;;
45007;SDS011;30743;52.008;5.644;2022-08-11T02:50:04;2.55;;;1.63;;
45007;SDS011;30743;52.008;5.644;2022-08-11T02:52:46;4.20;;;1.90;;
45007;SDS011;30743;52.008;5.644;2022-08-11T02:58:13;3.20;;;1.73;;
45007;SDS011;30743;52.008;5.644;2022-08-11T03:00:52;3.05;;;2.00;;
45007;SDS011;30743;52.008;5.644;2022-08-11T03:03:25;2.40;;;1.70;;
45007;SDS011;30743;52.008;5.644;2022-08-11T03:06:07;2.25;;;1.63;;
45007;SDS011;30743;52.008;5.644;2022-08-11T03:08:58;3.42;;;2.35;;
45007;SDS011;30743;52.008;5.644;2022-08-11T03:14:48;5.25;;;1.70;;
45007;SDS011;30743;52.008;5.644;2022-08-11T03:20:30;2.55;;;1.70;;
45007;SDS011;30743;52.008;5.644;2022-08-11T03:23:10;4.00;;;1.55;;
45007;SDS011;30743;52.008;5.644;2022-08-11T03:28:59;4.43;;;1.80;;
45007;SDS011;30743;52.008;5.644;2022-08-11T03:31:48;3.45;;;1.80;;
45007;SDS011;30743;52.008;5.644;2022-08-11T03:34:27;2.53;;;1.55;;
45007;SDS011;30743;52.008;5.644;2022-08-11T03:37:05;3.55;;;2.20;;
45007;SDS011;30743;52.008;5.644;2022-08-11T03:48:05;3.00;;;1.52;;
45007;SDS011;30743;52.008;5.644;2022-08-11T03:56:38;4.00;;;1.85;;
45007;SDS011;30743;52.008;5.644;2022-08-11T04:02:40;3.15;;;2.08;;
45007;SDS011;30743;52.008;5.644;2022-08-11T04:16:43;5.53;;;2.20;;
45007;SDS011;30743;52.008;5.644;2022-08-11T04:22:52;2.38;;;1.88;;
45007;SDS011;30743;52.008;5.644;2022-08-11T04:31:07;4.90;;;2.33;;
45007;SDS011;30743;52.008;5.644;2022-08-11T04:57:34;4.50;;;2.42;;
45007;SDS011;30743;52.008;5.644;2022-08-11T05:00:29;2.58;;;1.83;;
45007;SDS011;30743;52.008;5.644;2022-08-11T05:09:27;4.00;;;2.50;;
45007;SDS011;30743;52.008;5.644;2022-08-11T05:12:19;3.67;;;2.17;;
45007;SDS011;30743;52.008;5.644;2022-08-11T05:14:54;7.55;;;2.50;;
45007;SDS011;30743;52.008;5.644;2022-08-11T05:21:08;3.72;;;2.42;;
45007;SDS011;30743;52.008;5.644;2022-08-11T05:24:02;3.40;;;2.53;;
45007;SDS011;30743;52.008;5.644;2022-08-11T05:26:52;4.47;;;2.42;;
45007;SDS011;30743;52.008;5.644;2022-08-11T05:29:42;4.68;;;2.65;;
45007;SDS011;30743;52.008;5.644;2022-08-11T05:32:32;4.25;;;2.05;;
45007;SDS011;30743;52.008;5.644;2022-08-11T05:35:37;2.97;;;2.13;;
45007;SDS011;30743;52.008;5.644;2022-08-11T05:38:09;3.70;;;2.35;;
45007;SDS011;30743;52.008;5.644;2022-08-11T05:41:08;3.03;;;2.13;;
45007;SDS011;30743;52.008;5.644;2022-08-11T05:43:54;3.28;;;1.95;;
45007;SDS011;30743;52.008;5.644;2022-08-11T05:46:42;5.13;;;2.17;;
45007;SDS011;30743;52.008;5.644;2022-08-11T05:49:28;2.03;;;1.80;;
45007;SDS011;30743;52.008;5.644;2022-08-11T05:52:15;4.32;;;2.40;;
45007;SDS011;30743;52.008;5.644;2022-08-11T05:55:05;2.72;;;2.00;;
45007;SDS011;30743;52.008;5.644;2022-08-11T05:57:58;6.30;;;2.30;;
45007;SDS011;30743;52.008;5.644;2022-08-11T06:02:56;4.25;;;2.25;;
45007;SDS011;30743;52.008;5.644;2022-08-11T06:05:31;3.08;;;1.95;;
45007;SDS011;30743;52.008;5.644;2022-08-11T06:07:58;4.10;;;2.28;;
45007;SDS011;30743;52.008;5.644;2022-08-11T06:10:25;4.63;;;1.92;;
45007;SDS011;30743;52.008;5.644;2022-08-11T06:12:54;5.60;;;2.00;;
45007;SDS011;30743;52.008;5.644;2022-08-11T06:15:23;3.75;;;2.00;;
45007;SDS011;30743;52.008;5.644;2022-08-11T06:17:50;3.08;;;1.73;;
45007;SDS011;30743;52.008;5.644;2022-08-11T06:20:16;5.65;;;1.77;;
45007;SDS011;30743;52.008;5.644;2022-08-11T06:22:44;5.40;;;2.00;;
45007;SDS011;30743;52.008;5.644;2022-08-11T06:25:12;2.70;;;2.05;;
45007;SDS011;30743;52.008;5.644;2022-08-11T06:27:39;2.42;;;1.67;;
45007;SDS011;30743;52.008;5.644;2022-08-11T06:30:07;3.05;;;2.10;;
45007;SDS011;30743;52.008;5.644;2022-08-11T06:32:38;2.47;;;1.75;;
45007;SDS011;30743;52.008;5.644;2022-08-11T06:38:10;3.72;;;2.00;;
45007;SDS011;30743;52.008;5.644;2022-08-11T06:46:16;3.20;;;2.00;;
45007;SDS011;30743;52.008;5.644;2022-08-11T06:48:48;2.08;;;1.70;;
45007;SDS011;30743;52.008;5.644;2022-08-11T06:51:14;2.55;;;1.55;;
45007;SDS011;30743;52.008;5.644;2022-08-11T06:56:11;4.03;;;2.17;;
45007;SDS011;30743;52.008;5.644;2022-08-11T06:58:57;4.60;;;1.98;;
45007;SDS011;30743;52.008;5.644;2022-08-11T07:04:28;4.75;;;1.50;;
45007;SDS011;30743;52.008;5.644;2022-08-11T07:13:37;2.88;;;1.55;;
45007;SDS011;30743;52.008;5.644;2022-08-11T07:16:43;2.80;;;1.48;;
45007;SDS011;30743;52.008;5.644;2022-08-11T07:19:11;3.10;;;1.40;;
45007;SDS011;30743;52.008;5.644;2022-08-11T07:21:59;3.17;;;1.48;;
45007;SDS011;30743;52.008;5.644;2022-08-11T07:24:48;7.13;;;1.55;;
45007;SDS011;30743;52.008;5.644;2022-08-11T07:27:52;2.20;;;1.33;;
45007;SDS011;30743;52.008;5.644;2022-08-11T07:30:42;2.55;;;1.45;;
45007;SDS011;30743;52.008;5.644;2022-08-11T07:33:09;2.40;;;1.45;;
45007;SDS011;30743;52.008;5.644;2022-08-11T07:35:41;1.63;;;1.20;;
45007;SDS011;30743;52.008;5.644;2022-08-11T07:38:11;5.53;;;1.52;;
45007;SDS011;30743;52.008;5.644;2022-08-11T07:40:45;7.68;;;1.98;;
45007;SDS011;30743;52.008;5.644;2022-08-11T07:43:11;4.60;;;1.90;;
45007;SDS011;30743;52.008;5.644;2022-08-11T07:45:46;2.03;;;1.17;;
45007;SDS011;30743;52.008;5.644;2022-08-11T07:48:30;5.20;;;1.27;;
45007;SDS011;30743;52.008;5.644;2022-08-11T07:51:17;2.28;;;1.33;;
45007;SDS011;30743;52.008;5.644;2022-08-11T07:54:03;3.35;;;1.15;;
45007;SDS011;30743;52.008;5.644;2022-08-11T07:56:33;3.55;;;1.25;;
45007;SDS011;30743;52.008;5.644;2022-08-11T07:59:01;3.10;;;1.10;;
45007;SDS011;30743;52.008;5.644;2022-08-11T08:01:45;2.67;;;1.23;;
45007;SDS011;30743;52.008;5.644;2022-08-11T08:04:30;3.67;;;1.30;;
45007;SDS011;30743;52.008;5.644;2022-08-11T08:07:15;2.67;;;1.42;;
45007;SDS011;30743;52.008;5.644;2022-08-11T08:10:03;2.78;;;1.40;;
45007;SDS011;30743;52.008;5.644;2022-08-11T08:12:50;3.50;;;1.20;;
45007;SDS011;30743;52.008;5.644;2022-08-11T08:15:35;7.28;;;1.60;;
45007;SDS011;30743;52.008;5.644;2022-08-11T08:18:19;5.97;;;1.27;;
45007;SDS011;30743;52.008;5.644;2022-08-11T08:20:48;6.40;;;1.60;;
45007;SDS011;30743;52.008;5.644;2022-08-11T08:23:14;9.15;;;1.35;;
45007;SDS011;30743;52.008;5.644;2022-08-11T08:25:42;4.22;;;1.55;;
45007;SDS011;30743;52.008;5.644;2022-08-11T08:28:10;3.80;;;1.50;;
45007;SDS011;30743;52.008;5.644;2022-08-11T08:30:38;2.17;;;1.33;;
45007;SDS011;30743;52.008;5.644;2022-08-11T08:33:11;2.92;;;1.42;;
45007;SDS011;30743;52.008;5.644;2022-08-11T08:35:40;2.35;;;1.20;;
45007;SDS011;30743;52.008;5.644;2022-08-11T08:38:06;3.53;;;1.48;;
45007;SDS011;30743;52.008;5.644;2022-08-11T08:40:32;7.07;;;1.92;;
45007;SDS011;30743;52.008;5.644;2022-08-11T08:43:00;4.97;;;1.40;;
45007;SDS011;30743;52.008;5.644;2022-08-11T08:45:28;4.03;;;1.50;;
45007;SDS011;30743;52.008;5.644;2022-08-11T08:48:02;3.60;;;1.35;;
45007;SDS011;30743;52.008;5.644;2022-08-11T08:50:33;3.72;;;1.40;;
45007;SDS011;30743;52.008;5.644;2022-08-11T08:53:20;5.32;;;1.20;;
45007;SDS011;30743;52.008;5.644;2022-08-11T08:55:53;2.55;;;1.27;;
45007;SDS011;30743;52.008;5.644;2022-08-11T08:58:22;3.28;;;1.42;;
45007;SDS011;30743;52.008;5.644;2022-08-11T09:00:49;2.72;;;1.30;;
45007;SDS011;30743;52.008;5.644;2022-08-11T09:03:16;1.60;;;1.08;;
45007;SDS011;30743;52.008;5.644;2022-08-11T09:05:43;5.43;;;1.42;;
45007;SDS011;30743;52.008;5.644;2022-08-11T09:08:10;2.05;;;1.38;;
45007;SDS011;30743;52.008;5.644;2022-08-11T09:10:36;3.58;;;1.60;;
45007;SDS011;30743;52.008;5.644;2022-08-11T09:13:02;4.63;;;1.48;;
45007;SDS011;30743;52.008;5.644;2022-08-11T09:15:29;4.10;;;1.37;;
45007;SDS011;30743;52.008;5.644;2022-08-11T09:17:58;2.00;;;1.42;;
45007;SDS011;30743;52.008;5.644;2022-08-11T09:20:31;3.80;;;1.40;;
45007;SDS011;30743;52.008;5.644;2022-08-11T09:23:00;2.08;;;1.23;;
45007;SDS011;30743;52.008;5.644;2022-08-11T09:25:54;2.45;;;1.38;;
45007;SDS011;30743;52.008;5.644;2022-08-11T09:28:43;2.67;;;1.60;;
45007;SDS011;30743;52.008;5.644;2022-08-11T09:31:10;2.78;;;1.48;;
45007;SDS011;30743;52.008;5.644;2022-08-11T09:33:38;2.55;;;1.50;;
45007;SDS011;30743;52.008;5.644;2022-08-11T09:36:05;2.28;;;1.50;;
45007;SDS011;30743;52.008;5.644;2022-08-11T09:38:50;3.08;;;1.60;;
45007;SDS011;30743;52.008;5.644;2022-08-11T09:41:35;5.43;;;1.20;;
45007;SDS011;30743;52.008;5.644;2022-08-11T09:44:03;2.05;;;1.40;;
45007;SDS011;30743;52.008;5.644;2022-08-11T09:46:49;1.75;;;1.55;;
45007;SDS011;30743;52.008;5.644;2022-08-11T09:49:17;5.80;;;1.45;;
45007;SDS011;30743;52.008;5.644;2022-08-11T09:51:45;2.95;;;1.30;;
45007;SDS011;30743;52.008;5.644;2022-08-11T09:54:13;2.90;;;1.30;;
45007;SDS011;30743;52.008;5.644;2022-08-11T09:56:41;3.20;;;1.23;;
45007;SDS011;30743;52.008;5.644;2022-08-11T09:59:25;3.78;;;1.27;;
45007;SDS011;30743;52.008;5.644;2022-08-11T10:01:56;4.50;;;1.20;;
45007;SDS011;30743;52.008;5.644;2022-08-11T10:04:25;4.78;;;1.30;;
45007;SDS011;30743;52.008;5.644;2022-08-11T10:07:40;4.13;;;1.10;;
45007;SDS011;30743;52.008;5.644;2022-08-11T10:10:14;2.10;;;1.05;;
45007;SDS011;30743;52.008;5.644;2022-08-11T10:12:51;3.25;;;1.30;;
45007;SDS011;30743;52.008;5.644;2022-08-11T10:15:23;1.40;;;1.15;;
45007;SDS011;30743;52.008;5.644;2022-08-11T10:21:01;1.67;;;1.13;;
45007;SDS011;30743;52.008;5.644;2022-08-11T10:23:37;3.42;;;1.05;;
45007;SDS011;30743;52.008;5.644;2022-08-11T10:26:25;2.45;;;1.10;;
45007;SDS011;30743;52.008;5.644;2022-08-11T10:29:12;8.32;;;1.23;;
45007;SDS011;30743;52.008;5.644;2022-08-11T10:31:57;3.35;;;1.10;;
45007;SDS011;30743;52.008;5.644;2022-08-11T10:34:46;2.45;;;1.10;;
45007;SDS011;30743;52.008;5.644;2022-08-11T10:37:13;1.45;;;1.20;;
45007;SDS011;30743;52.008;5.644;2022-08-11T10:39:41;6.03;;;1.23;;
45007;SDS011;30743;52.008;5.644;2022-08-11T10:42:09;2.80;;;1.40;;
45007;SDS011;30743;52.008;5.644;2022-08-11T10:44:53;2.30;;;1.45;;
45007;SDS011;30743;52.008;5.644;2022-08-11T10:47:21;2.30;;;1.30;;
45007;SDS011;30743;52.008;5.644;2022-08-11T10:50:09;4.97;;;1.10;;
45007;SDS011;30743;52.008;5.644;2022-08-11T10:52:55;2.28;;;1.42;;
45007;SDS011;30743;52.008;5.644;2022-08-11T10:55:42;2.13;;;1.30;;
45007;SDS011;30743;52.008;5.644;2022-08-11T10:58:28;5.07;;;1.35;;
45007;SDS011;30743;52.008;5.644;2022-08-11T11:03:46;4.93;;;1.38;;
45007;SDS011;30743;52.008;5.644;2022-08-11T11:08:50;3.55;;;1.20;;
45007;SDS011;30743;52.008;5.644;2022-08-11T11:11:22;2.70;;;1.20;;
45007;SDS011;30743;52.008;5.644;2022-08-11T11:14:09;1.92;;;1.00;;
45007;SDS011;30743;52.008;5.644;2022-08-11T11:16:58;3.15;;;1.05;;
45007;SDS011;30743;52.008;5.644;2022-08-11T11:19:39;3.33;;;1.30;;
45007;SDS011;30743;52.008;5.644;2022-08-11T11:22:06;2.97;;;1.20;;
45007;SDS011;30743;52.008;5.644;2022-08-11T11:25:03;2.72;;;1.30;;
45007;SDS011;30743;52.008;5.644;2022-08-11T11:27:40;2.05;;;1.27;;
45007;SDS011;30743;52.008;5.644;2022-08-11T11:30:20;2.58;;;1.65;;
45007;SDS011;30743;52.008;5.644;2022-08-11T11:38:42;3.80;;;1.40;;
45007;SDS011;30743;52.008;5.644;2022-08-11T11:41:08;2.05;;;1.20;;
45007;SDS011;30743;52.008;5.644;2022-08-11T11:43:50;2.47;;;1.60;;
45007;SDS011;30743;52.008;5.644;2022-08-11T11:46:23;4.15;;;1.38;;
45007;SDS011;30743;52.008;5.644;2022-08-11T11:48:54;2.85;;;1.30;;
45007;SDS011;30743;52.008;5.644;2022-08-11T11:51:21;4.75;;;1.30;;
45007;SDS011;30743;52.008;5.644;2022-08-11T11:53:48;4.15;;;1.35;;
45007;SDS011;30743;52.008;5.644;2022-08-11T11:56:14;2.40;;;1.65;;
45007;SDS011;30743;52.008;5.644;2022-08-11T11:58:40;2.83;;;1.38;;
45007;SDS011;30743;52.008;5.644;2022-08-11T12:01:26;2.63;;;1.50;;
45007;SDS011;30743;52.008;5.644;2022-08-11T12:03:53;4.25;;;1.30;;
45007;SDS011;30743;52.008;5.644;2022-08-11T12:06:21;6.03;;;1.25;;
45007;SDS011;30743;52.008;5.644;2022-08-11T12:08:49;4.50;;;1.42;;
45007;SDS011;30743;52.008;5.644;2022-08-11T12:11:18;7.63;;;1.60;;
45007;SDS011;30743;52.008;5.644;2022-08-11T12:14:04;2.53;;;1.20;;
45007;SDS011;30743;52.008;5.644;2022-08-11T12:16:32;2.40;;;1.40;;
45007;SDS011;30743;52.008;5.644;2022-08-11T12:19:00;3.05;;;1.20;;
45007;SDS011;30743;52.008;5.644;2022-08-11T12:21:27;2.08;;;1.30;;
45007;SDS011;30743;52.008;5.644;2022-08-11T12:23:54;1.70;;;1.25;;
45007;SDS011;30743;52.008;5.644;2022-08-11T12:26:48;4.00;;;1.52;;
45007;SDS011;30743;52.008;5.644;2022-08-11T12:29:14;3.85;;;1.48;;
45007;SDS011;30743;52.008;5.644;2022-08-11T12:31:43;4.30;;;1.33;;
45007;SDS011;30743;52.008;5.644;2022-08-11T12:34:10;2.28;;;1.35;;
45007;SDS011;30743;52.008;5.644;2022-08-11T12:36:42;2.60;;;1.67;;
45007;SDS011;30743;52.008;5.644;2022-08-11T12:39:12;1.33;;;1.10;;
45007;SDS011;30743;52.008;5.644;2022-08-11T12:41:44;2.65;;;1.30;;
45007;SDS011;30743;52.008;5.644;2022-08-11T12:44:28;3.33;;;1.50;;
45007;SDS011;30743;52.008;5.644;2022-08-11T12:47:16;7.28;;;1.50;;
45007;SDS011;30743;52.008;5.644;2022-08-11T12:49:44;3.60;;;1.50;;
45007;SDS011;30743;52.008;5.644;2022-08-11T12:57:37;1.83;;;1.17;;
45007;SDS011;30743;52.008;5.644;2022-08-11T13:00:24;3.92;;;1.50;;
45007;SDS011;30743;52.008;5.644;2022-08-11T13:03:10;2.40;;;1.20;;
45007;SDS011;30743;52.008;5.644;2022-08-11T13:06:00;2.38;;;1.42;;
45007;SDS011;30743;52.008;5.644;2022-08-11T13:08:28;2.05;;;1.35;;
45007;SDS011;30743;52.008;5.644;2022-08-11T13:10:58;3.95;;;1.40;;
45007;SDS011;30743;52.008;5.644;2022-08-11T13:13:44;1.50;;;1.38;;
45007;SDS011;30743;52.008;5.644;2022-08-11T13:16:12;5.07;;;1.35;;
45007;SDS011;30743;52.008;5.644;2022-08-11T13:18:39;2.08;;;1.30;;
45007;SDS011;30743;52.008;5.644;2022-08-11T13:21:06;7.13;;;1.40;;
45007;SDS011;30743;52.008;5.644;2022-08-11T13:23:33;5.50;;;1.30;;
45007;SDS011;30743;52.008;5.644;2022-08-11T13:26:00;1.33;;;1.20;;
45007;SDS011;30743;52.008;5.644;2022-08-11T13:28:25;1.77;;;1.30;;
45007;SDS011;30743;52.008;5.644;2022-08-11T13:30:51;3.95;;;1.48;;
45007;SDS011;30743;52.008;5.644;2022-08-11T13:33:45;4.57;;;1.23;;
45007;SDS011;30743;52.008;5.644;2022-08-11T13:36:18;1.50;;;1.20;;
45007;SDS011;30743;52.008;5.644;2022-08-11T13:38:45;3.30;;;1.27;;
45007;SDS011;30743;52.008;5.644;2022-08-11T13:41:11;4.03;;;1.33;;
45007;SDS011;30743;52.008;5.644;2022-08-11T13:43:56;2.45;;;1.30;;
45007;SDS011;30743;52.008;5.644;2022-08-11T13:46:22;4.13;;;1.27;;
45007;SDS011;30743;52.008;5.644;2022-08-11T13:48:50;2.83;;;1.30;;
45007;SDS011;30743;52.008;5.644;2022-08-11T13:51:18;1.48;;;1.08;;
45007;SDS011;30743;52.008;5.644;2022-08-11T13:54:01;3.50;;;1.20;;
45007;SDS011;30743;52.008;5.644;2022-08-11T13:56:27;3.53;;;1.30;;
45007;SDS011;30743;52.008;5.644;2022-08-11T13:58:53;3.28;;;1.30;;
45007;SDS011;30743;52.008;5.644;2022-08-11T14:01:20;1.43;;;1.17;;
45007;SDS011;30743;52.008;5.644;2022-08-11T14:03:52;1.98;;;1.00;;
45007;SDS011;30743;52.008;5.644;2022-08-11T14:06:18;2.65;;;1.27;;
45007;SDS011;30743;52.008;5.644;2022-08-11T14:11:12;1.52;;;1.15;;
45007;SDS011;30743;52.008;5.644;2022-08-11T14:13:59;3.47;;;1.33;;
45007;SDS011;30743;52.008;5.644;2022-08-11T14:16:29;3.30;;;1.30;;
45007;SDS011;30743;52.008;5.644;2022-08-11T14:18:59;1.42;;;1.20;;
45007;SDS011;30743;52.008;5.644;2022-08-11T14:21:28;3.08;;;1.27;;
45007;SDS011;30743;52.008;5.644;2022-08-11T14:26:41;1.45;;;1.10;;
45007;SDS011;30743;52.008;5.644;2022-08-11T14:29:13;3.53;;;1.40;;
45007;SDS011;30743;52.008;5.644;2022-08-11T14:32:00;2.30;;;1.27;;
45007;SDS011;30743;52.008;5.644;2022-08-11T14:34:28;1.67;;;1.17;;
45007;SDS011;30743;52.008;5.644;2022-08-11T14:36:55;2.35;;;1.30;;
45007;SDS011;30743;52.008;5.644;2022-08-11T14:39:25;2.72;;;1.33;;
45007;SDS011;30743;52.008;5.644;2022-08-11T14:42:00;2.85;;;1.30;;
45007;SDS011;30743;52.008;5.644;2022-08-11T14:44:48;6.60;;;1.20;;
45007;SDS011;30743;52.008;5.644;2022-08-11T14:47:35;7.22;;;1.38;;
45007;SDS011;30743;52.008;5.644;2022-08-11T14:52:30;1.52;;;1.20;;
45007;SDS011;30743;52.008;5.644;2022-08-11T14:54:58;2.00;;;1.17;;
45007;SDS011;30743;52.008;5.644;2022-08-11T14:57:43;3.75;;;1.10;;
45007;SDS011;30743;52.008;5.644;2022-08-11T15:00:10;1.33;;;1.08;;
45007;SDS011;30743;52.008;5.644;2022-08-11T15:02:39;2.55;;;1.17;;
45007;SDS011;30743;52.008;5.644;2022-08-11T15:05:25;3.30;;;1.30;;
45007;SDS011;30743;52.008;5.644;2022-08-11T15:07:52;3.22;;;1.30;;
45007;SDS011;30743;52.008;5.644;2022-08-11T15:10:19;2.75;;;1.35;;
45007;SDS011;30743;52.008;5.644;2022-08-11T15:12:46;2.33;;;1.30;;
45007;SDS011;30743;52.008;5.644;2022-08-11T15:15:12;3.78;;;1.40;;
45007;SDS011;30743;52.008;5.644;2022-08-11T15:17:58;1.80;;;1.20;;
45007;SDS011;30743;52.008;5.644;2022-08-11T15:20:26;5.30;;;1.42;;
45007;SDS011;30743;52.008;5.644;2022-08-11T15:23:12;2.85;;;1.08;;
45007;SDS011;30743;52.008;5.644;2022-08-11T15:26:08;1.48;;;1.13;;
45007;SDS011;30743;52.008;5.644;2022-08-11T15:28:46;4.18;;;1.15;;
45007;SDS011;30743;52.008;5.644;2022-08-11T15:31:31;3.53;;;1.10;;
45007;SDS011;30743;52.008;5.644;2022-08-11T15:34:17;3.53;;;1.20;;
45007;SDS011;30743;52.008;5.644;2022-08-11T15:43:12;5.55;;;1.33;;
45007;SDS011;30743;52.008;5.644;2022-08-11T15:46:07;1.95;;;0.93;;
45007;SDS011;30743;52.008;5.644;2022-08-11T15:51:16;2.22;;;1.30;;
45007;SDS011;30743;52.008;5.644;2022-08-11T15:53:49;4.07;;;1.30;;
45007;SDS011;30743;52.008;5.644;2022-08-11T15:56:19;2.03;;;1.42;;
45007;SDS011;30743;52.008;5.644;2022-08-11T15:58:47;3.03;;;1.25;;
45007;SDS011;30743;52.008;5.644;2022-08-11T16:01:35;1.48;;;1.02;;
45007;SDS011;30743;52.008;5.644;2022-08-11T16:04:23;1.63;;;1.25;;
45007;SDS011;30743;52.008;5.644;2022-08-11T16:12:07;1.67;;;1.17;;
45007;SDS011;30743;52.008;5.644;2022-08-11T16:14:44;2.95;;;1.30;;
45007;SDS011;30743;52.008;5.644;2022-08-11T16:17:32;2.05;;;1.10;;
45007;SDS011;30743;52.008;5.644;2022-08-11T16:20:01;31.88;;;3.30;;
45007;SDS011;30743;52.008;5.644;2022-08-11T16:22:29;10.77;;;1.40;;
45007;SDS011;30743;52.008;5.644;2022-08-11T16:25:07;2.00;;;1.10;;
45007;SDS011;30743;52.008;5.644;2022-08-11T16:27:36;2.90;;;1.20;;
45007;SDS011;30743;52.008;5.644;2022-08-11T16:30:05;3.40;;;1.55;;
45007;SDS011;30743;52.008;5.644;2022-08-11T16:32:32;4.25;;;1.10;;
45007;SDS011;30743;52.008;5.644;2022-08-11T16:35:01;3.67;;;1.40;;
45007;SDS011;30743;52.008;5.644;2022-08-11T16:40:34;2.60;;;1.30;;
45007;SDS011;30743;52.008;5.644;2022-08-11T16:43:01;1.90;;;1.10;;
45007;SDS011;30743;52.008;5.644;2022-08-11T16:48:34;2.25;;;1.10;;
45007;SDS011;30743;52.008;5.644;2022-08-11T16:51:02;2.05;;;1.20;;
45007;SDS011;30743;52.008;5.644;2022-08-11T16:53:28;1.75;;;1.10;;
45007;SDS011;30743;52.008;5.644;2022-08-11T16:55:55;4.40;;;1.10;;
45007;SDS011;30743;52.008;5.644;2022-08-11T16:58:26;6.75;;;1.40;;
45007;SDS011;30743;52.008;5.644;2022-08-11T17:01:12;1.95;;;1.17;;
45007;SDS011;30743;52.008;5.644;2022-08-11T17:03:42;1.85;;;1.20;;
45007;SDS011;30743;52.008;5.644;2022-08-11T17:06:29;2.00;;;1.25;;
45007;SDS011;30743;52.008;5.644;2022-08-11T17:09:17;1.60;;;1.02;;
45007;SDS011;30743;52.008;5.644;2022-08-11T17:12:07;4.88;;;1.35;;
45007;SDS011;30743;52.008;5.644;2022-08-11T17:14:54;6.22;;;1.40;;
45007;SDS011;30743;52.008;5.644;2022-08-11T17:17:40;2.33;;;1.10;;
45007;SDS011;30743;52.008;5.644;2022-08-11T17:20:06;2.15;;;1.20;;
45007;SDS011;30743;52.008;5.644;2022-08-11T17:22:36;1.40;;;1.00;;
45007;SDS011;30743;52.008;5.644;2022-08-11T17:25:23;2.70;;;1.02;;
45007;SDS011;30743;52.008;5.644;2022-08-11T17:27:52;2.33;;;1.30;;
45007;SDS011;30743;52.008;5.644;2022-08-11T17:30:19;6.25;;;1.48;;
45007;SDS011;30743;52.008;5.644;2022-08-11T17:33:07;2.65;;;1.00;;
45007;SDS011;30743;52.008;5.644;2022-08-11T17:36:00;3.72;;;1.35;;
45007;SDS011;30743;52.008;5.644;2022-08-11T17:38:26;2.83;;;1.42;;
45007;SDS011;30743;52.008;5.644;2022-08-11T17:40:54;4.40;;;1.20;;
45007;SDS011;30743;52.008;5.644;2022-08-11T17:43:41;4.82;;;1.38;;
45007;SDS011;30743;52.008;5.644;2022-08-11T17:46:27;3.00;;;1.33;;
45007;SDS011;30743;52.008;5.644;2022-08-11T17:49:14;1.95;;;1.00;;
45007;SDS011;30743;52.008;5.644;2022-08-11T17:51:44;4.05;;;1.27;;
45007;SDS011;30743;52.008;5.644;2022-08-11T17:54:30;3.28;;;1.10;;
45007;SDS011;30743;52.008;5.644;2022-08-11T17:57:15;1.90;;;1.25;;
45007;SDS011;30743;52.008;5.644;2022-08-11T18:00:01;2.20;;;1.02;;
45007;SDS011;30743;52.008;5.644;2022-08-11T18:02:28;1.98;;;1.00;;
45007;SDS011;30743;52.008;5.644;2022-08-11T18:05:16;1.45;;;0.95;;
45007;SDS011;30743;52.008;5.644;2022-08-11T18:07:44;3.20;;;1.00;;
45007;SDS011;30743;52.008;5.644;2022-08-11T18:10:30;2.38;;;1.10;;
45007;SDS011;30743;52.008;5.644;2022-08-11T18:13:16;3.65;;;1.00;;
45007;SDS011;30743;52.008;5.644;2022-08-11T18:16:02;1.30;;;0.90;;
45007;SDS011;30743;52.008;5.644;2022-08-11T18:18:47;2.90;;;1.05;;
45007;SDS011;30743;52.008;5.644;2022-08-11T18:21:31;3.58;;;1.13;;
45007;SDS011;30743;52.008;5.644;2022-08-11T18:24:18;3.90;;;1.20;;
45007;SDS011;30743;52.008;5.644;2022-08-11T18:27:07;2.22;;;1.10;;
45007;SDS011;30743;52.008;5.644;2022-08-11T18:29:54;2.72;;;1.20;;
45007;SDS011;30743;52.008;5.644;2022-08-11T18:32:41;1.20;;;0.80;;
45007;SDS011;30743;52.008;5.644;2022-08-11T18:35:25;2.70;;;1.30;;
45007;SDS011;30743;52.008;5.644;2022-08-11T18:38:11;2.38;;;0.90;;
45007;SDS011;30743;52.008;5.644;2022-08-11T18:40:56;1.75;;;1.00;;
45007;SDS011;30743;52.008;5.644;2022-08-11T18:43:42;2.47;;;1.10;;
45007;SDS011;30743;52.008;5.644;2022-08-11T18:46:33;1.58;;;1.10;;
45007;SDS011;30743;52.008;5.644;2022-08-11T18:49:23;2.30;;;0.90;;
45007;SDS011;30743;52.008;5.644;2022-08-11T18:52:10;3.05;;;1.02;;
45007;SDS011;30743;52.008;5.644;2022-08-11T18:54:57;3.22;;;1.20;;
45007;SDS011;30743;52.008;5.644;2022-08-11T18:57:45;2.83;;;0.90;;
45007;SDS011;30743;52.008;5.644;2022-08-11T19:00:31;3.15;;;0.98;;
45007;SDS011;30743;52.008;5.644;2022-08-11T19:03:18;1.80;;;1.20;;
45007;SDS011;30743;52.008;5.644;2022-08-11T19:06:04;1.83;;;0.93;;
45007;SDS011;30743;52.008;5.644;2022-08-11T19:08:52;3.05;;;1.00;;
45007;SDS011;30743;52.008;5.644;2022-08-11T19:11:39;3.00;;;1.05;;
45007;SDS011;30743;52.008;5.644;2022-08-11T19:14:23;3.90;;;1.10;;
45007;SDS011;30743;52.008;5.644;2022-08-11T19:17:09;0.95;;;0.85;;
45007;SDS011;30743;52.008;5.644;2022-08-11T19:19:55;2.95;;;1.20;;
45007;SDS011;30743;52.008;5.644;2022-08-11T19:22:40;4.78;;;1.00;;
45007;SDS011;30743;52.008;5.644;2022-08-11T19:25:27;1.63;;;1.00;;
45007;SDS011;30743;52.008;5.644;2022-08-11T19:28:14;3.33;;;1.10;;
45007;SDS011;30743;52.008;5.644;2022-08-11T19:31:00;2.92;;;1.00;;
45007;SDS011;30743;52.008;5.644;2022-08-11T19:33:45;3.00;;;0.90;;
45007;SDS011;30743;52.008;5.644;2022-08-11T19:36:30;2.08;;;1.10;;
45007;SDS011;30743;52.008;5.644;2022-08-11T19:39:17;2.85;;;1.30;;
45007;SDS011;30743;52.008;5.644;2022-08-11T19:42:04;3.65;;;1.55;;
45007;SDS011;30743;52.008;5.644;2022-08-11T19:44:51;2.33;;;1.00;;
45007;SDS011;30743;52.008;5.644;2022-08-11T19:47:36;7.40;;;1.42;;